createdAt,value
2023-03-28T03:45:25.671Z,482.67
2023-03-28T03:47:52.523Z,468.13
2023-03-28T03:50:19.277Z,458.30
2023-03-28T03:52:45.923Z,455.33
2023-03-28T03:55:12.748Z,452.52
2023-03-28T03:57:39.505Z,466.98
2023-03-28T04:00:12.322Z,453.38
2023-03-28T04:02:40.034Z,448.92
2023-03-28T04:05:09.238Z,451.23
2023-03-28T04:07:36.486Z,444.50
2023-03-28T04:10:03.808Z,442.65
2023-03-28T04:12:30.536Z,439.88
2023-03-28T04:14:57.435Z,439.73
2023-03-28T04:17:29.936Z,440.98
2023-03-28T04:19:57.219Z,440.80
2023-03-28T04:22:29.618Z,437.02
2023-03-28T04:24:57.235Z,436.70
2023-03-28T04:27:26.192Z,442.27
2023-03-28T04:29:56.180Z,432.00
2023-03-28T04:32:24.669Z,445.13
2023-03-28T04:34:51.371Z,438.02
2023-03-28T04:37:19.439Z,433.75
2023-03-28T04:39:49.025Z,440.67
2023-03-28T04:42:16.643Z,432.17
2023-03-28T04:44:43.395Z,430.33
2023-03-28T04:47:11.753Z,426.98
2023-03-28T04:49:38.598Z,421.45
2023-03-28T04:52:06.354Z,415.25
2023-03-28T04:54:32.978Z,416.05
2023-03-28T04:56:59.735Z,442.95
2023-03-28T04:59:26.398Z,432.08
2023-03-28T05:01:53.282Z,425.15
2023-03-28T05:04:22.214Z,417.73
2023-03-28T05:06:49.904Z,427.42
2023-03-28T05:09:17.627Z,420.20
2023-03-28T05:11:45.377Z,411.15
2023-03-28T05:14:12.431Z,417.25
2023-03-28T05:16:39.212Z,413.70
2023-03-28T05:19:06.663Z,412.50
2023-03-28T05:21:33.451Z,413.40
2023-03-28T05:24:00.286Z,414.98
2023-03-28T05:26:27.994Z,411.55
2023-03-28T05:28:54.711Z,409.97
2023-03-28T05:31:21.424Z,415.58
2023-03-28T05:33:48.101Z,421.60
2023-03-28T05:36:14.972Z,419.42
2023-03-28T05:38:42.219Z,421.13
2023-03-28T05:41:08.976Z,433.77
2023-03-28T05:43:35.765Z,428.30
2023-03-28T05:46:02.494Z,428.30
2023-03-28T05:48:29.281Z,438.02
2023-03-28T05:50:56.441Z,430.75
2023-03-28T05:53:23.201Z,441.17
2023-03-28T05:55:50.648Z,438.38
2023-03-28T05:58:17.615Z,429.42
2023-03-28T06:00:44.637Z,435.20
2023-03-28T06:03:17.340Z,435.23
2023-03-28T06:05:44.762Z,441.10
2023-03-28T06:08:11.732Z,438.20
2023-03-28T06:10:38.807Z,442.27
2023-03-28T06:13:05.626Z,444.73
2023-03-28T06:15:32.973Z,440.10
2023-03-28T06:17:59.830Z,444.92
2023-03-28T06:20:26.642Z,440.17
2023-03-28T06:22:53.399Z,444.75
2023-03-28T06:25:20.359Z,455.75
2023-03-28T06:27:47.069Z,448.63
2023-03-28T06:30:14.378Z,454.65
2023-03-28T06:32:41.192Z,461.23
2023-03-28T06:35:08.398Z,465.97
2023-03-28T06:37:35.073Z,464.67
2023-03-28T06:40:02.148Z,486.95
2023-03-28T06:42:29.027Z,486.25
2023-03-28T06:44:55.837Z,497.85
2023-03-28T06:47:22.655Z,511.90
2023-03-28T06:49:49.687Z,511.70
2023-03-28T06:52:16.899Z,519.13
2023-03-28T06:54:43.622Z,514.17
2023-03-28T06:57:10.447Z,522.60
2023-03-28T06:59:37.217Z,525.55
2023-03-28T07:02:03.973Z,533.70
2023-03-28T07:04:32.735Z,537.80
2023-03-28T07:06:59.438Z,550.50
2023-03-28T07:09:26.142Z,549.65
2023-03-28T07:11:52.949Z,551.20
2023-03-28T07:14:19.727Z,559.65
2023-03-28T07:16:46.529Z,568.38
2023-03-28T07:19:13.314Z,578.42
2023-03-28T07:21:39.958Z,579.90
2023-03-28T07:24:07.004Z,584.92
2023-03-28T07:26:33.830Z,587.78
2023-03-28T07:29:00.440Z,591.22
2023-03-28T07:31:27.710Z,599.80
2023-03-28T07:33:58.061Z,606.17
2023-03-28T07:36:27.557Z,605.20
2023-03-28T07:38:54.734Z,609.08
2023-03-28T07:41:24.265Z,637.60
2023-03-28T07:43:51.005Z,651.40
2023-03-28T07:46:17.947Z,655.25
2023-03-28T07:48:46.494Z,671.93
2023-03-28T07:51:13.968Z,672.95
2023-03-28T07:53:40.774Z,682.90
2023-03-28T07:56:12.373Z,682.70
2023-03-28T07:58:40.887Z,695.53
2023-03-28T08:01:09.466Z,699.83
2023-03-28T08:03:36.477Z,718.58
2023-03-28T08:06:24.318Z,727.22
2023-03-28T08:08:56.062Z,738.92
2023-03-28T08:11:22.918Z,775.03
2023-03-28T08:13:49.638Z,803.60
2023-03-28T08:16:16.341Z,831.45
2023-03-28T08:18:43.108Z,864.13
2023-03-28T08:21:10.072Z,885.42
2023-03-28T08:23:36.846Z,909.17
2023-03-28T08:26:06.315Z,933.50
2023-03-28T08:28:34.598Z,959.40
2023-03-28T08:31:02.053Z,976.45
2023-03-28T08:33:29.109Z,995.03
2023-03-28T08:35:56.833Z,996.50
2023-03-28T08:38:24.256Z,986.42
2023-03-28T08:41:17.891Z,947.70
2023-03-28T08:44:18.522Z,914.92
2023-03-28T08:46:47.485Z,858.28
2023-03-28T08:49:17.591Z,836.78
2023-03-28T08:51:57.891Z,816.88
2023-03-28T08:54:46.461Z,804.93
2023-03-28T08:57:25.315Z,791.45
2023-03-28T09:00:17.035Z,783.25
2023-03-28T09:02:44.005Z,747.03
2023-03-28T09:05:23.300Z,748.38
2023-03-28T09:08:35.224Z,739.45
2023-03-28T09:11:16.713Z,731.90
2023-03-28T09:14:11.645Z,733.67
2023-03-28T09:17:26.629Z,750.58
2023-03-28T09:20:11.095Z,750.90
2023-03-28T09:22:49.179Z,758.35
2023-03-28T09:25:37.340Z,762.88
2023-03-28T09:28:36.768Z,828.63
2023-03-28T09:31:09.147Z,893.45
2023-03-28T09:33:40.854Z,916.70
2023-03-28T09:36:19.000Z,942.07
2023-03-28T09:38:58.185Z,973.95
2023-03-28T09:41:29.443Z,999.90
2023-03-28T09:44:00.915Z,999.90
2023-03-28T09:46:38.072Z,999.90
2023-03-28T09:49:04.869Z,999.90
2023-03-28T09:51:32.131Z,999.90
2023-03-28T09:53:58.992Z,999.90
2023-03-28T09:56:27.610Z,999.90
2023-03-28T09:58:55.794Z,999.90
2023-03-28T10:01:45.989Z,999.90
2023-03-28T10:04:18.190Z,999.90
2023-03-28T10:06:48.122Z,999.90
2023-03-28T10:09:25.187Z,999.90
2023-03-28T10:11:56.488Z,999.90
2023-03-28T10:14:46.202Z,999.90
2023-03-28T10:17:17.609Z,999.90
2023-03-28T10:19:46.522Z,999.90
2023-03-28T10:22:38.705Z,999.90
2023-03-28T10:25:08.217Z,999.90
2023-03-28T10:27:37.450Z,999.90
2023-03-28T10:30:21.751Z,999.90
2023-03-28T10:33:23.269Z,999.90
2023-03-28T10:36:02.365Z,999.90
2023-03-28T10:38:37.315Z,999.90
2023-03-28T10:41:11.652Z,999.90
2023-03-28T10:43:42.158Z,999.90
2023-03-28T10:46:15.523Z,999.90
2023-03-28T10:48:48.902Z,999.90
2023-03-28T10:51:22.097Z,999.90
2023-03-28T10:54:16.606Z,999.90
2023-03-28T10:57:11.107Z,999.90
2023-03-28T10:59:53.887Z,999.90
2023-03-28T11:02:47.453Z,999.90
2023-03-28T11:05:37.229Z,999.90
2023-03-28T11:08:19.432Z,999.90
2023-03-28T11:10:56.939Z,999.90
2023-03-28T11:13:47.564Z,999.90
2023-03-28T11:16:43.676Z,999.90
2023-03-28T11:19:55.139Z,999.90
2023-03-28T11:22:52.273Z,999.90
2023-03-28T11:25:34.781Z,999.90
2023-03-28T11:28:08.015Z,999.90
2023-03-28T11:30:36.238Z,999.90
2023-03-28T11:33:22.489Z,999.90
2023-03-28T11:36:05.117Z,999.90
2023-03-28T11:38:41.922Z,999.90
2023-03-28T11:41:17.239Z,999.90
2023-03-28T11:43:52.062Z,999.90
2023-03-28T11:46:27.208Z,999.90
2023-03-28T11:49:11.936Z,999.90
2023-03-28T11:52:08.768Z,999.90
2023-03-28T11:55:02.937Z,999.90
2023-03-28T11:57:34.030Z,999.90
2023-03-28T12:00:33.244Z,999.90
2023-03-28T12:03:43.504Z,999.90
2023-03-28T12:06:31.561Z,999.90
2023-03-28T12:09:24.434Z,999.90
2023-03-28T12:12:02.061Z,999.90
2023-03-28T12:14:51.116Z,999.90
2023-03-28T12:17:43.439Z,999.90
2023-03-28T12:20:42.704Z,999.90
2023-03-28T12:23:40.285Z,999.90
2023-03-28T12:26:21.273Z,999.90
2023-03-28T12:28:53.673Z,999.90
2023-03-28T12:31:38.866Z,999.90
2023-03-28T12:34:15.980Z,999.90
2023-03-28T12:37:01.777Z,999.90
2023-03-28T12:39:40.303Z,995.23
2023-03-28T12:42:11.751Z,988.47
2023-03-28T12:44:59.174Z,971.45
2023-03-28T12:47:41.980Z,964.67
2023-03-28T12:50:18.926Z,960.83
2023-03-28T12:52:48.492Z,966.78
2023-03-28T12:55:24.282Z,970.55
2023-03-28T12:58:11.036Z,974.17
2023-03-28T13:00:57.608Z,972.67
2023-03-28T13:03:42.345Z,972.20
2023-03-28T13:06:44.756Z,965.38
2023-03-28T13:09:55.982Z,964.25
2023-03-28T13:12:39.999Z,956.50
2023-03-28T13:15:16.384Z,955.10
2023-03-28T13:17:47.853Z,947.55
2023-03-28T13:20:17.683Z,956.22
2023-03-28T13:23:01.997Z,957.35
2023-03-28T13:25:33.446Z,952.72
2023-03-28T13:28:22.520Z,945.78
2023-03-28T13:31:04.866Z,938.78
2023-03-28T13:33:38.273Z,939.10
2023-03-28T13:36:05.594Z,934.35
2023-03-28T13:38:44.315Z,933.15
2023-03-28T13:41:41.142Z,925.42
2023-03-28T13:44:27.409Z,919.58
2023-03-28T13:46:55.064Z,919.10
2023-03-28T13:49:33.558Z,912.07
2023-03-28T13:52:04.723Z,914.00
2023-03-28T13:54:31.530Z,921.22
2023-03-28T13:57:06.970Z,928.22
2023-03-28T13:59:40.056Z,939.45
2023-03-28T14:02:18.354Z,935.88
2023-03-28T14:04:57.081Z,934.78
2023-03-28T14:07:25.951Z,931.05
2023-03-28T14:09:53.672Z,939.90
2023-03-28T14:12:21.372Z,950.22
2023-03-28T14:14:51.410Z,959.75
2023-03-28T14:17:27.176Z,949.78
2023-03-28T14:20:05.321Z,933.40
2023-03-28T14:22:43.293Z,925.88
2023-03-28T14:25:21.623Z,914.78
2023-03-28T14:27:53.890Z,910.97
2023-03-28T14:30:26.098Z,915.85
2023-03-28T14:33:08.947Z,924.50
2023-03-28T14:35:37.788Z,922.00
2023-03-28T14:38:16.842Z,924.15
2023-03-28T14:40:45.234Z,926.80
2023-03-28T14:43:15.998Z,928.95
2023-03-28T14:45:50.407Z,934.20
2023-03-28T14:48:20.447Z,944.95
2023-03-28T14:50:50.189Z,951.78
2023-03-28T14:53:24.438Z,964.55
2023-03-28T14:55:54.465Z,966.47
2023-03-28T14:58:23.986Z,967.25
2023-03-28T15:00:54.858Z,969.70
2023-03-28T15:03:32.972Z,974.30
2023-03-28T15:06:00.638Z,976.60
2023-03-28T15:08:37.819Z,968.47
2023-03-28T15:11:26.188Z,968.53
2023-03-28T15:14:19.620Z,950.38
2023-03-28T15:16:47.161Z,933.40
2023-03-28T15:19:23.761Z,923.80
2023-03-28T15:21:56.951Z,904.25
2023-03-28T15:24:26.576Z,897.92
2023-03-28T15:26:59.869Z,898.42
2023-03-28T15:29:27.874Z,901.08
2023-03-28T15:32:03.702Z,903.85
2023-03-28T15:34:31.258Z,907.63
2023-03-28T15:37:03.710Z,908.90
2023-03-28T15:39:33.597Z,898.45
2023-03-28T15:42:18.877Z,903.30
2023-03-28T15:44:58.638Z,909.05
2023-03-28T15:47:31.320Z,900.03
2023-03-28T15:50:08.289Z,895.70
2023-03-28T15:52:35.689Z,872.58
2023-03-28T15:55:05.710Z,861.35
2023-03-28T15:57:32.838Z,856.47
2023-03-28T16:00:00.846Z,855.90
2023-03-28T16:02:27.752Z,854.37
2023-03-28T16:04:58.805Z,864.65
2023-03-28T16:07:26.972Z,860.85
2023-03-28T16:09:53.908Z,855.97
2023-03-28T16:12:20.694Z,852.47
2023-03-28T16:14:49.675Z,856.55
2023-03-28T16:17:16.428Z,845.88
2023-03-28T16:19:45.360Z,846.80
2023-03-28T16:22:12.209Z,842.47
2023-03-28T16:24:39.022Z,842.60
2023-03-28T16:27:05.711Z,852.33
2023-03-28T16:29:32.679Z,850.05
2023-03-28T16:31:59.371Z,860.72
2023-03-28T16:34:26.217Z,856.17
2023-03-28T16:36:55.941Z,863.47
2023-03-28T16:39:22.689Z,863.88
2023-03-28T16:41:49.394Z,848.90
2023-03-28T16:44:16.286Z,851.88
2023-03-28T16:46:43.036Z,849.58
2023-03-28T16:49:09.769Z,846.77
2023-03-28T16:51:36.470Z,843.63
2023-03-28T16:54:03.337Z,837.35
2023-03-28T16:56:30.256Z,837.20
2023-03-28T16:58:57.000Z,833.57
2023-03-28T17:01:23.680Z,827.05
2023-03-28T17:03:52.574Z,824.95
2023-03-28T17:06:19.634Z,828.38
2023-03-28T17:08:46.593Z,818.97
2023-03-28T17:11:13.846Z,819.45
2023-03-28T17:13:42.141Z,809.25
2023-03-28T17:16:10.742Z,798.33
2023-03-28T17:18:37.822Z,778.35
2023-03-28T17:21:10.676Z,784.63
2023-03-28T17:23:39.319Z,771.17
2023-03-28T17:26:08.314Z,772.28
2023-03-28T17:28:38.847Z,767.83
2023-03-28T17:31:11.036Z,761.78
2023-03-28T17:33:38.559Z,760.10
2023-03-28T17:36:26.272Z,756.58
2023-03-28T17:38:55.640Z,745.72
2023-03-28T17:41:23.461Z,748.70
2023-03-28T17:43:54.866Z,739.28
2023-03-28T17:46:22.592Z,738.60
2023-03-28T17:48:49.874Z,737.00
2023-03-28T17:51:17.498Z,730.22
2023-03-28T17:53:46.470Z,730.75
2023-03-28T17:56:14.298Z,723.78
2023-03-28T17:58:41.054Z,728.47
2023-03-28T18:01:13.453Z,736.53
2023-03-28T18:03:41.121Z,725.97
2023-03-28T18:06:08.469Z,727.67
2023-03-28T18:08:35.713Z,729.13
2023-03-28T18:11:08.446Z,729.80
2023-03-28T18:13:37.116Z,726.85
2023-03-28T18:16:06.651Z,719.80
2023-03-28T18:18:33.400Z,723.45
2023-03-28T18:21:00.279Z,715.92
2023-03-28T18:23:27.111Z,718.83
2023-03-28T18:25:53.976Z,715.78
2023-03-28T18:28:23.922Z,719.47
2023-03-28T18:30:51.520Z,717.95
2023-03-28T18:33:19.147Z,717.13
2023-03-28T18:35:46.910Z,715.23
2023-03-28T18:38:13.916Z,718.42
2023-03-28T18:40:41.022Z,722.13
2023-03-28T18:43:08.062Z,718.55
2023-03-28T18:45:35.828Z,720.15
2023-03-28T18:48:02.638Z,733.70
2023-03-28T18:50:29.851Z,724.57
2023-03-28T18:52:57.402Z,736.42
2023-03-28T18:55:24.231Z,741.45
2023-03-28T18:57:52.439Z,747.08
2023-03-28T19:00:19.841Z,730.27
2023-03-28T19:02:47.869Z,732.60
2023-03-28T19:05:16.017Z,743.67
2023-03-28T19:07:43.935Z,729.95
2023-03-28T19:10:13.567Z,727.92
2023-03-28T19:12:41.373Z,724.77
2023-03-28T19:15:10.628Z,719.95
2023-03-28T19:17:39.767Z,736.63
2023-03-28T19:20:12.027Z,723.25
2023-03-28T19:22:39.795Z,722.10
2023-03-28T19:25:08.144Z,718.10
2023-03-28T19:27:38.303Z,720.55
2023-03-28T19:30:06.445Z,722.03
2023-03-28T19:32:33.606Z,720.75
2023-03-28T19:35:00.345Z,726.25
2023-03-28T19:37:27.034Z,725.30
2023-03-28T19:39:53.760Z,736.40
2023-03-28T19:42:21.319Z,748.28
2023-03-28T19:44:48.011Z,755.57
2023-03-28T19:47:14.759Z,749.05
2023-03-28T19:49:42.732Z,744.67
2023-03-28T19:52:09.946Z,751.47
2023-03-28T19:54:37.553Z,750.85
2023-03-28T19:57:07.942Z,754.10
2023-03-28T19:59:35.270Z,735.30
2023-03-28T20:02:02.146Z,757.75
2023-03-28T20:04:29.149Z,757.85
2023-03-28T20:06:56.249Z,746.25
2023-03-28T20:09:24.044Z,730.33
2023-03-28T20:11:50.914Z,735.33
2023-03-28T20:14:20.054Z,731.40
2023-03-28T20:16:47.778Z,736.47
2023-03-28T20:19:14.571Z,737.28
2023-03-28T20:21:41.304Z,722.50
2023-03-28T20:24:08.542Z,728.75
2023-03-28T20:26:35.423Z,733.92
2023-03-28T20:29:02.133Z,729.05
2023-03-28T20:31:29.400Z,727.60
2023-03-28T20:33:56.617Z,729.25
2023-03-28T20:36:23.467Z,728.88
2023-03-28T20:38:50.460Z,730.72
2023-03-28T20:41:18.640Z,723.78
2023-03-28T20:43:50.118Z,734.50
2023-03-28T20:46:21.041Z,722.58
2023-03-28T20:48:52.882Z,729.67
2023-03-28T20:51:22.610Z,731.53
2023-03-28T20:53:55.636Z,728.40
2023-03-28T20:56:23.448Z,728.00
2023-03-28T20:58:50.859Z,723.70
2023-03-28T21:01:18.768Z,727.72
2023-03-28T21:03:49.705Z,720.05
2023-03-28T21:06:17.239Z,729.88
2023-03-28T21:08:46.082Z,725.50
2023-03-28T21:11:17.836Z,720.85
2023-03-28T21:13:45.212Z,730.00
2023-03-28T21:16:14.246Z,730.78
2023-03-28T21:18:41.177Z,724.45
2023-03-28T21:21:09.569Z,717.35
2023-03-28T21:23:37.740Z,714.85
2023-03-28T21:26:06.160Z,714.60
2023-03-28T21:28:33.740Z,718.47
2023-03-28T21:31:12.113Z,706.13
2023-03-28T21:33:39.091Z,706.53
2023-03-28T21:36:07.546Z,695.70
2023-03-28T21:38:35.573Z,696.65
2023-03-28T21:41:03.566Z,697.85
2023-03-28T21:43:30.433Z,687.67
2023-03-28T21:45:57.185Z,685.83
2023-03-28T21:48:23.845Z,683.03
2023-03-28T21:50:58.907Z,682.30
2023-03-28T21:53:31.661Z,682.60
2023-03-28T21:55:59.365Z,690.30
2023-03-28T21:58:28.717Z,689.60
2023-03-28T22:00:55.538Z,695.25
2023-03-28T22:03:23.046Z,694.50
2023-03-28T22:05:52.580Z,691.73
2023-03-28T22:08:20.569Z,691.93
2023-03-28T22:10:52.440Z,699.75
2023-03-28T22:13:20.402Z,698.40
2023-03-28T22:15:47.285Z,689.92
2023-03-28T22:18:15.730Z,689.75
2023-03-28T22:20:43.909Z,691.75
2023-03-28T22:23:10.886Z,685.97
2023-03-28T22:25:38.429Z,692.80
2023-03-28T22:28:08.350Z,685.58
2023-03-28T22:30:36.343Z,696.83
2023-03-28T22:33:04.191Z,692.83
2023-03-28T22:35:32.269Z,701.80
2023-03-28T22:37:59.930Z,699.22
2023-03-28T22:40:26.832Z,699.50
2023-03-28T22:42:56.950Z,703.28
2023-03-28T22:45:24.983Z,703.50
2023-03-28T22:47:51.698Z,699.60
2023-03-28T22:50:19.312Z,702.47
2023-03-28T22:52:50.241Z,694.13
2023-03-28T22:55:17.687Z,696.33
2023-03-28T22:57:45.209Z,696.20
